createdAt,value
2022-09-01T01:02:23.362Z,3.30
2022-09-01T01:17:01.856Z,3.10
2022-09-01T01:40:01.682Z,3.03
2022-09-01T03:32:48.610Z,3.40
2022-09-01T04:30:29.003Z,3.63
2022-09-01T05:02:43.448Z,3.53
2022-09-01T05:05:21.835Z,3.45
2022-09-01T05:18:59.553Z,4.10
2022-09-01T05:31:05.398Z,3.92
2022-09-01T05:48:03.571Z,4.72
2022-09-01T05:50:31.745Z,3.60
2022-09-01T05:52:59.087Z,3.85
2022-09-01T05:55:27.836Z,3.70
2022-09-01T05:57:57.032Z,3.83
2022-09-01T06:00:25.331Z,4.05
2022-09-01T06:02:53.817Z,4.15
2022-09-01T06:05:55.504Z,3.65
2022-09-01T06:08:25.473Z,3.50
2022-09-01T06:10:53.044Z,3.63
2022-09-01T06:13:22.034Z,3.38
2022-09-01T06:16:20.250Z,3.67
2022-09-01T06:18:47.649Z,4.72
2022-09-01T06:21:19.448Z,3.50
2022-09-01T06:23:49.185Z,3.72
2022-09-01T06:26:18.816Z,3.53
2022-09-01T06:28:46.801Z,3.50
2022-09-01T06:31:15.266Z,3.00
2022-09-01T06:33:42.753Z,3.53
2022-09-01T06:36:10.087Z,3.67
2022-09-01T06:38:37.818Z,2.80
2022-09-01T06:41:13.072Z,3.72
2022-09-01T06:43:44.747Z,2.90
2022-09-01T06:46:12.179Z,3.00
2022-09-01T06:48:46.686Z,3.00
2022-09-01T06:51:18.985Z,2.97
2022-09-01T06:53:56.826Z,2.70
2022-09-01T06:56:32.173Z,3.22
2022-09-01T06:59:04.265Z,3.20
2022-09-01T07:01:32.560Z,2.92
2022-09-01T07:04:01.971Z,3.20
2022-09-01T07:07:00.325Z,3.20
2022-09-01T07:10:25.246Z,2.80
2022-09-01T07:13:12.416Z,2.88
2022-09-01T07:18:34.111Z,3.42
2022-09-01T07:21:36.899Z,2.80
2022-09-01T07:24:11.519Z,2.97
2022-09-01T07:26:51.938Z,2.88
2022-09-01T07:29:26.432Z,2.83
2022-09-01T07:34:50.299Z,2.95
2022-09-01T07:43:29.797Z,3.10
2022-09-01T07:52:03.946Z,2.95
2022-09-01T07:54:31.896Z,2.80
2022-09-01T07:56:59.513Z,2.88
2022-09-01T07:59:28.136Z,2.70
2022-09-01T08:02:22.664Z,2.90
2022-09-01T08:04:50.225Z,3.20
2022-09-01T08:07:18.388Z,3.20
2022-09-01T08:09:46.462Z,2.58
2022-09-01T08:12:15.232Z,2.90
2022-09-01T08:17:57.320Z,2.50
2022-09-01T08:20:27.866Z,2.28
2022-09-01T08:23:10.062Z,2.13
2022-09-01T08:25:39.940Z,2.20
2022-09-01T08:28:08.149Z,1.98
2022-09-01T08:30:36.788Z,2.00
2022-09-01T08:33:10.968Z,2.15
2022-09-01T08:35:44.789Z,1.60
2022-09-01T08:38:12.743Z,2.10
2022-09-01T08:40:43.297Z,1.60
2022-09-01T08:43:32.234Z,1.83
2022-09-01T08:46:32.423Z,2.00
2022-09-01T08:49:25.359Z,1.90
2022-09-01T08:52:39.185Z,2.25
2022-09-01T08:55:35.422Z,1.88
2022-09-01T08:58:06.962Z,1.42
2022-09-01T09:01:06.168Z,1.52
2022-09-01T09:03:49.425Z,1.95
2022-09-01T09:06:25.967Z,1.67
2022-09-01T09:09:18.168Z,1.42
2022-09-01T09:11:56.964Z,1.83
2022-09-01T09:15:01.537Z,2.33
2022-09-01T09:20:25.148Z,1.50
2022-09-01T09:22:56.347Z,1.63
2022-09-01T09:28:52.142Z,1.58
2022-09-01T09:31:33.916Z,3.35
2022-09-01T09:34:29.551Z,2.28
2022-09-01T09:37:05.659Z,1.50
2022-09-01T09:39:43.989Z,1.45
2022-09-01T09:45:42.759Z,1.70
2022-09-01T09:48:30.108Z,1.35
2022-09-01T09:51:21.838Z,1.55
2022-09-01T09:53:49.726Z,1.67
2022-09-01T09:56:20.798Z,1.63
2022-09-01T09:58:50.211Z,1.60
2022-09-01T10:01:24.318Z,1.50
2022-09-01T10:03:54.867Z,1.40
2022-09-01T10:06:34.294Z,1.48
2022-09-01T10:09:07.323Z,1.50
2022-09-01T10:11:46.427Z,1.55
2022-09-01T10:14:35.863Z,1.50
2022-09-01T10:17:43.648Z,1.30
2022-09-01T10:20:22.923Z,1.30
2022-09-01T10:22:52.992Z,1.50
2022-09-01T10:25:33.293Z,1.35
2022-09-01T10:28:11.534Z,1.63
2022-09-01T10:31:04.376Z,1.70
2022-09-01T10:33:32.401Z,1.80
2022-09-01T10:35:59.621Z,1.63
2022-09-01T10:38:28.792Z,1.50
2022-09-01T10:41:14.021Z,1.55
2022-09-01T10:43:45.257Z,1.23
2022-09-01T10:46:40.713Z,1.42
2022-09-01T10:49:32.399Z,1.65
2022-09-01T10:52:07.537Z,1.52
2022-09-01T10:54:55.599Z,1.50
2022-09-01T10:57:42.898Z,1.20
2022-09-01T11:00:36.819Z,1.20
2022-09-01T11:06:12.893Z,2.03
2022-09-01T11:08:57.372Z,1.92
2022-09-01T11:12:01.210Z,2.50
2022-09-01T11:14:29.691Z,2.08
2022-09-01T11:17:17.957Z,1.90
2022-09-01T11:20:10.452Z,1.30
2022-09-01T11:22:43.477Z,1.60
2022-09-01T11:25:11.616Z,1.40
2022-09-01T11:27:54.830Z,1.20
2022-09-01T11:30:53.627Z,1.42
2022-09-01T11:33:54.375Z,1.23
2022-09-01T11:36:30.792Z,1.27
2022-09-01T11:39:06.741Z,1.13
2022-09-01T11:41:40.053Z,1.20
2022-09-01T11:44:33.878Z,0.90
2022-09-01T11:47:16.835Z,1.15
2022-09-01T11:50:03.455Z,1.10
2022-09-01T11:52:35.017Z,1.10
2022-09-01T11:55:11.679Z,1.10
2022-09-01T11:57:40.802Z,0.90
2022-09-01T12:00:25.690Z,0.98
2022-09-01T12:02:55.204Z,1.10
2022-09-01T12:05:34.805Z,1.48
2022-09-01T12:08:23.908Z,1.08
2022-09-01T12:11:19.745Z,1.02
2022-09-01T12:14:04.695Z,1.20
2022-09-01T12:16:37.349Z,1.00
2022-09-01T12:19:06.344Z,1.25
2022-09-01T12:21:42.793Z,0.98
2022-09-01T12:24:22.113Z,1.00
2022-09-01T12:26:57.871Z,0.88
2022-09-01T12:29:28.891Z,1.02
2022-09-01T12:32:01.819Z,1.00
2022-09-01T12:34:42.751Z,1.13
2022-09-01T12:37:23.223Z,0.85
2022-09-01T12:39:54.662Z,1.10
2022-09-01T12:42:27.637Z,1.50
2022-09-01T12:45:09.058Z,1.10
2022-09-01T12:47:48.447Z,1.20
2022-09-01T12:50:17.196Z,1.10
2022-09-01T12:52:56.691Z,1.10
2022-09-01T12:58:25.972Z,1.23
2022-09-01T13:01:05.761Z,1.15
2022-09-01T13:03:36.432Z,1.02
2022-09-01T13:06:05.185Z,1.70
2022-09-01T13:12:16.424Z,1.10
2022-09-01T13:14:45.429Z,0.80
2022-09-01T13:18:07.054Z,1.35
2022-09-01T13:20:40.060Z,1.10
2022-09-01T13:23:47.805Z,0.93
2022-09-01T13:26:14.979Z,1.00
2022-09-01T13:28:42.065Z,1.15
2022-09-01T13:31:29.939Z,1.20
2022-09-01T13:34:22.066Z,1.10
2022-09-01T13:37:47.450Z,1.08
2022-09-01T13:40:23.333Z,0.98
2022-09-01T13:53:41.923Z,0.93
2022-09-01T13:56:09.023Z,1.20
2022-09-01T13:58:37.182Z,1.30
2022-09-01T14:01:05.151Z,1.40
2022-09-01T14:03:33.840Z,1.10
2022-09-01T14:06:01.187Z,1.17
2022-09-01T14:08:28.359Z,1.40
2022-09-01T14:10:56.287Z,1.42
2022-09-01T14:13:25.452Z,1.48
2022-09-01T14:15:53.787Z,1.40
2022-09-01T14:18:32.156Z,1.40
2022-09-01T14:21:01.439Z,0.93
2022-09-01T14:23:35.158Z,1.13
2022-09-01T14:26:02.339Z,1.10
2022-09-01T14:28:29.534Z,1.02
2022-09-01T14:33:27.456Z,1.10
2022-09-01T14:35:54.716Z,0.77
2022-09-01T14:38:49.901Z,1.00
2022-09-01T14:41:22.060Z,0.80
2022-09-01T14:43:59.725Z,0.98
2022-09-01T14:46:34.826Z,1.10
2022-09-01T14:49:03.495Z,1.00
2022-09-01T14:54:21.274Z,0.90
2022-09-01T14:59:37.397Z,1.20
2022-09-01T15:02:05.105Z,1.00
2022-09-01T15:04:32.334Z,1.17
2022-09-01T15:07:13.651Z,1.10
2022-09-01T15:09:41.028Z,0.93
2022-09-01T15:12:10.224Z,1.00
2022-09-01T15:14:38.056Z,1.00
2022-09-01T15:17:06.944Z,1.00
2022-09-01T15:19:35.144Z,1.00
2022-09-01T15:22:02.504Z,1.10
2022-09-01T15:24:29.740Z,1.10
2022-09-01T15:26:59.218Z,1.05
2022-09-01T15:29:26.450Z,1.20
2022-09-01T15:31:54.330Z,1.10
2022-09-01T15:34:21.479Z,1.20
2022-09-01T15:36:48.664Z,1.00
2022-09-01T15:39:15.816Z,1.08
2022-09-01T15:41:44.285Z,1.13
2022-09-01T15:44:11.749Z,1.17
2022-09-01T15:46:40.671Z,1.02
2022-09-01T15:49:13.592Z,1.20
2022-09-01T15:51:43.901Z,0.80
2022-09-01T15:54:20.045Z,1.10
2022-09-01T15:56:47.790Z,1.42
2022-09-01T15:59:24.101Z,1.40
2022-09-01T16:01:53.312Z,1.45
2022-09-01T16:04:25.470Z,0.95
2022-09-01T16:06:58.467Z,1.20
2022-09-01T16:09:28.378Z,1.20
2022-09-01T16:11:55.662Z,1.30
2022-09-01T16:14:23.612Z,1.25
2022-09-01T16:16:59.793Z,1.10
2022-09-01T16:19:45.680Z,1.20
2022-09-01T16:22:18.527Z,1.30
2022-09-01T16:24:49.572Z,1.40
2022-09-01T16:27:24.561Z,1.38
2022-09-01T16:29:58.871Z,1.65
2022-09-01T16:33:26.550Z,1.40
2022-09-01T16:36:31.487Z,1.65
2022-09-01T16:39:07.076Z,1.55
2022-09-01T16:42:08.096Z,1.50
2022-09-01T16:44:50.272Z,1.48
2022-09-01T16:47:40.741Z,1.83
2022-09-01T16:50:19.751Z,1.65
2022-09-01T16:53:22.107Z,1.70
2022-09-01T16:56:15.183Z,1.65
2022-09-01T16:58:59.353Z,2.13
2022-09-01T17:01:53.740Z,1.80
2022-09-01T17:05:04.146Z,1.88
2022-09-01T17:07:48.175Z,1.60
2022-09-01T17:10:34.022Z,1.52
2022-09-01T17:13:32.442Z,1.45
2022-09-01T17:16:08.120Z,1.30
2022-09-01T17:18:39.264Z,1.55
2022-09-01T17:21:14.309Z,1.58
2022-09-01T17:23:52.563Z,1.40
2022-09-01T17:26:27.224Z,1.60
2022-09-01T17:29:13.504Z,1.60
2022-09-01T17:32:09.099Z,1.90
2022-09-01T17:34:42.219Z,1.70
2022-09-01T17:37:28.878Z,1.50
2022-09-01T17:40:08.745Z,4.95
2022-09-01T17:43:02.748Z,1.50
2022-09-01T17:46:22.300Z,1.77
2022-09-01T17:49:08.367Z,1.60
2022-09-01T17:52:01.263Z,1.60
2022-09-01T17:54:46.601Z,1.52
2022-09-01T17:57:36.706Z,1.30
2022-09-01T18:00:23.878Z,1.50
2022-09-01T18:03:11.136Z,1.58
2022-09-01T18:05:46.160Z,2.10
2022-09-01T18:08:20.589Z,1.45
2022-09-01T18:18:47.675Z,1.90
2022-09-01T18:22:06.884Z,1.63
2022-09-01T18:27:55.503Z,1.67
2022-09-01T18:31:42.825Z,1.70
2022-09-01T18:34:49.868Z,1.70
2022-09-01T18:38:03.709Z,1.60
2022-09-01T18:52:40.465Z,1.77
2022-09-01T19:25:54.911Z,1.83
2022-09-01T19:29:44.029Z,1.60
2022-09-01T19:51:42.151Z,1.73
2022-09-01T20:18:09.207Z,2.17
2022-09-01T20:43:47.591Z,2.60
2022-09-01T20:57:59.806Z,3.08
2022-09-01T21:01:47.589Z,3.03
2022-09-01T21:08:41.207Z,2.65
2022-09-01T21:20:18.789Z,2.80
2022-09-01T21:41:47.617Z,2.70
2022-09-01T22:08:38.664Z,2.85
2022-09-01T22:19:10.234Z,2.40
2022-09-01T22:35:39.308Z,2.60
2022-09-01T22:46:14.853Z,2.50
